Fragaria, Washington
Current Conditions -  °F | °C
As of 1:55 AM on Tuesday 21 Oct 2014 (Local Time) from KPWT Reporting Station
Overcast Overcast  
Wind Chill: 54°   Ceiling: 600
Heat Index: 54°   Visibility: 10mi
Dew Point: 52°   Wind: 7mph
Humidity: 94%   Direction: 180°S
Pressure: 29.84"   Gusts: NA
Location:  47.4285°N, 122.573°W
Report Text: KPWT 210855Z AUTO 18006KT 10SM BKN006 BKN012 OVC038 12/11 A2984 RMK AO1 60001 52007
Loading
Personal Weather Stations






























Interactive Weather Map New forecast layout! Learn more

10-Day Weather Forecast

Advertisements
Track Severe Weather on mobile